createdAt,value
2018-01-15T00:00:23.128Z,-2.30
2018-01-15T00:02:49.422Z,-2.30
2018-01-15T00:05:16.450Z,-2.40
2018-01-15T00:07:42.737Z,-2.40
2018-01-15T00:10:09.025Z,-2.30
2018-01-15T00:12:36.068Z,-2.10
2018-01-15T00:15:03.106Z,-2.10
2018-01-15T00:17:30.151Z,-2.10
2018-01-15T00:19:57.913Z,-2.00
2018-01-15T00:22:31.575Z,-2.00
2018-01-15T00:24:57.900Z,-2.00
2018-01-15T00:27:24.190Z,-1.80
2018-01-15T00:29:50.461Z,-1.90
2018-01-15T00:32:16.761Z,-1.80
2018-01-15T00:34:43.054Z,-1.70
2018-01-15T00:37:09.344Z,-1.70
2018-01-15T00:39:35.641Z,-1.80
2018-01-15T00:42:02.688Z,-1.80
2018-01-15T00:44:29.724Z,-1.80
2018-01-15T00:46:56.003Z,-1.90
2018-01-15T00:49:22.281Z,-1.80
2018-01-15T00:51:49.325Z,-1.80
2018-01-15T00:54:15.599Z,-1.90
2018-01-15T00:56:41.881Z,-1.80
2018-01-15T00:59:08.913Z,-1.60
2018-01-15T01:01:35.211Z,-1.70
2018-01-15T01:04:01.497Z,-1.60
2018-01-15T01:06:27.824Z,-1.60
2018-01-15T01:08:54.844Z,-1.70
2018-01-15T01:11:21.145Z,-1.80
2018-01-15T01:13:47.425Z,-1.70
2018-01-15T01:16:14.471Z,-1.70
2018-01-15T01:18:42.237Z,-1.90
2018-01-15T01:21:08.516Z,-1.90
2018-01-15T01:23:34.803Z,-1.80
2018-01-15T01:26:01.840Z,-1.70
2018-01-15T01:28:28.196Z,-1.80
2018-01-15T01:30:55.244Z,-1.80
2018-01-15T01:33:22.265Z,-1.80
2018-01-15T01:35:48.549Z,-1.90
2018-01-15T01:38:14.840Z,-1.80
2018-01-15T01:40:41.130Z,-1.80
2018-01-15T01:43:07.423Z,-1.80
2018-01-15T01:45:33.716Z,-1.90
2018-01-15T01:48:00.030Z,-1.80
2018-01-15T01:50:26.325Z,-1.90
2018-01-15T01:52:52.956Z,-1.90
2018-01-15T01:55:19.260Z,-1.80
2018-01-15T01:57:46.284Z,-1.70
2018-01-15T02:00:12.740Z,-1.70
2018-01-15T02:02:39.047Z,-1.70
2018-01-15T02:05:05.353Z,-1.50
2018-01-15T02:07:31.636Z,-1.40
2018-01-15T02:09:58.429Z,-1.30
2018-01-15T02:12:24.822Z,-1.40
2018-01-15T02:14:51.112Z,-1.30
2018-01-15T02:17:18.144Z,-1.30
2018-01-15T02:19:44.460Z,-1.30
2018-01-15T02:22:10.740Z,-1.30
2018-01-15T02:24:37.789Z,-1.30
2018-01-15T02:27:04.134Z,-1.30
2018-01-15T02:29:30.444Z,-1.20
2018-01-15T02:31:56.836Z,-1.20
2018-01-15T02:34:23.174Z,-1.00
2018-01-15T02:36:49.479Z,-1.00
2018-01-15T02:39:15.798Z,-1.00
2018-01-15T02:41:42.102Z,-1.00
2018-01-15T02:44:08.417Z,-1.00
2018-01-15T02:46:35.479Z,-1.00
2018-01-15T02:49:02.494Z,-0.90
2018-01-15T02:51:28.807Z,-0.90
2018-01-15T02:53:55.097Z,-0.80
2018-01-15T02:56:21.381Z,-0.80
2018-01-15T02:58:47.656Z,-0.80
2018-01-15T03:01:13.938Z,-0.80
2018-01-15T03:03:40.979Z,-0.90
2018-01-15T03:06:07.274Z,-1.00
2018-01-15T03:08:33.805Z,-0.90
2018-01-15T03:11:00.148Z,-0.80
2018-01-15T03:13:26.435Z,-0.70
2018-01-15T03:15:53.492Z,-0.70
2018-01-15T03:18:20.510Z,-0.70
2018-01-15T03:20:46.795Z,-0.80
2018-01-15T03:23:13.093Z,-0.80
2018-01-15T03:25:40.124Z,-1.00
2018-01-15T03:28:06.627Z,-1.00
2018-01-15T03:30:32.932Z,-0.90
2018-01-15T03:32:59.235Z,-0.90
2018-01-15T03:35:26.278Z,-1.00
2018-01-15T03:37:53.317Z,-0.90
2018-01-15T03:40:20.342Z,-1.10
2018-01-15T03:42:48.546Z,-1.10
2018-01-15T03:45:15.581Z,-1.20
2018-01-15T03:47:41.874Z,-1.30
2018-01-15T03:50:08.164Z,-1.10
2018-01-15T03:52:34.461Z,-1.10
2018-01-15T03:55:00.749Z,-1.10
2018-01-15T03:57:27.045Z,-1.10
2018-01-15T03:59:53.340Z,-1.10
2018-01-15T04:02:19.664Z,-1.20
2018-01-15T04:04:45.943Z,-1.20
2018-01-15T04:07:12.982Z,-1.20
2018-01-15T04:09:39.281Z,-1.20
2018-01-15T04:12:05.617Z,-1.20
2018-01-15T04:14:31.933Z,-1.10
2018-01-15T04:16:59.699Z,-1.30
2018-01-15T04:19:25.991Z,-1.30
2018-01-15T04:21:52.297Z,-1.20
2018-01-15T04:24:19.341Z,-1.20
2018-01-15T04:26:46.374Z,-1.20
2018-01-15T04:29:13.403Z,-1.30
2018-01-15T04:31:39.668Z,-1.30
2018-01-15T04:34:05.988Z,-1.30
2018-01-15T04:36:33.061Z,-1.30
2018-01-15T04:38:59.345Z,-1.30
2018-01-15T04:41:25.612Z,-1.20
2018-01-15T04:43:51.889Z,-1.20
2018-01-15T04:46:18.184Z,-1.20
2018-01-15T04:48:44.487Z,-1.20
2018-01-15T04:51:11.520Z,-1.30
2018-01-15T04:53:38.585Z,-1.30
2018-01-15T04:56:05.600Z,-1.20
2018-01-15T04:58:31.892Z,-1.30
2018-01-15T05:00:58.190Z,-1.30
2018-01-15T05:03:24.483Z,-1.20
2018-01-15T05:05:50.794Z,-1.30
2018-01-15T05:08:17.195Z,-1.20
2018-01-15T05:10:43.530Z,-1.30
2018-01-15T05:13:09.813Z,-1.30
2018-01-15T05:15:36.135Z,-1.30
2018-01-15T05:18:03.905Z,-1.40
2018-01-15T05:20:30.210Z,-1.40
2018-01-15T05:22:56.497Z,-1.30
2018-01-15T05:25:22.808Z,-1.30
2018-01-15T05:27:49.865Z,-1.40
2018-01-15T05:30:16.914Z,-1.40
2018-01-15T05:32:43.950Z,-1.40
2018-01-15T05:35:11.004Z,-1.20
2018-01-15T05:37:38.037Z,-1.20
2018-01-15T05:40:05.097Z,-1.30
2018-01-15T05:42:31.402Z,-1.30
2018-01-15T05:44:57.695Z,-1.30
2018-01-15T05:47:24.035Z,-1.20
2018-01-15T05:49:50.316Z,-1.30
2018-01-15T05:52:17.348Z,-1.40
2018-01-15T05:54:44.357Z,-1.40
2018-01-15T05:57:10.664Z,-1.50
2018-01-15T05:59:36.933Z,-1.50
2018-01-15T06:02:03.231Z,-1.40
2018-01-15T06:04:29.524Z,-1.40
2018-01-15T06:06:56.557Z,-1.30
2018-01-15T06:09:23.581Z,-1.20
2018-01-15T06:11:49.869Z,-1.30
2018-01-15T06:14:16.132Z,-1.30
2018-01-15T06:16:42.428Z,-1.30
2018-01-15T06:19:08.695Z,-1.30
2018-01-15T06:21:34.984Z,-1.20
2018-01-15T06:24:01.300Z,-1.30
2018-01-15T06:26:28.329Z,-1.40
2018-01-15T06:28:54.601Z,-1.40
2018-01-15T06:31:20.891Z,-1.30
2018-01-15T06:33:47.936Z,-1.30
2018-01-15T06:36:14.201Z,-1.30
2018-01-15T06:38:40.505Z,-1.20
2018-01-15T06:41:07.544Z,-1.30
2018-01-15T06:43:33.833Z,-1.40
2018-01-15T06:46:00.100Z,-1.40
2018-01-15T06:48:26.414Z,-1.30
2018-01-15T06:50:52.721Z,-1.30
2018-01-15T06:53:19.024Z,-1.30
2018-01-15T06:55:45.309Z,-1.20
2018-01-15T06:58:12.364Z,-1.20
2018-01-15T07:00:38.644Z,-1.30
2018-01-15T07:03:04.949Z,-1.20
2018-01-15T07:05:31.221Z,-1.20
2018-01-15T07:07:57.521Z,-1.20
2018-01-15T07:10:23.797Z,-1.20
2018-01-15T07:12:50.084Z,-1.40
2018-01-15T07:15:16.389Z,-1.20
2018-01-15T07:17:43.427Z,-1.10
2018-01-15T07:20:10.457Z,-1.20
2018-01-15T07:22:36.758Z,-1.20
2018-01-15T07:25:03.080Z,-1.20
2018-01-15T07:27:29.378Z,-1.20
2018-01-15T07:29:56.405Z,-1.10
2018-01-15T07:32:23.442Z,-1.10
2018-01-15T07:34:49.762Z,-1.20
2018-01-15T07:37:16.043Z,-1.20
2018-01-15T07:39:42.355Z,-1.10
2018-01-15T07:42:09.381Z,-1.00
2018-01-15T07:44:36.425Z,-0.90
2018-01-15T07:47:02.712Z,-1.00
2018-01-15T07:49:29.014Z,-0.90
2018-01-15T07:51:56.042Z,-0.90
2018-01-15T07:54:23.084Z,-0.90
2018-01-15T07:56:50.138Z,-0.80
2018-01-15T07:59:17.189Z,-0.80
2018-01-15T08:01:44.210Z,-0.80
2018-01-15T08:04:10.512Z,-0.80
2018-01-15T08:06:36.813Z,-0.80
2018-01-15T08:09:03.091Z,-0.80
2018-01-15T08:11:29.365Z,-0.70
2018-01-15T08:13:56.430Z,-0.80
2018-01-15T08:16:23.460Z,-0.60
2018-01-15T08:18:50.556Z,-0.50
2018-01-15T08:21:16.855Z,-0.60
2018-01-15T08:23:43.148Z,-0.50
2018-01-15T08:26:09.439Z,-0.50
2018-01-15T08:28:35.731Z,-0.60
2018-01-15T08:31:02.029Z,-0.50
2018-01-15T08:33:28.332Z,-0.50
2018-01-15T08:35:54.660Z,-0.40
2018-01-15T08:38:20.971Z,-0.50
2018-01-15T08:40:48.021Z,-0.30
2018-01-15T08:43:14.304Z,-0.40
2018-01-15T08:45:40.612Z,-0.40
2018-01-15T08:48:06.885Z,-0.30
2018-01-15T08:50:33.216Z,-0.20
2018-01-15T08:53:00.249Z,0.00
2018-01-15T08:55:26.521Z,-0.10
2018-01-15T08:57:52.860Z,-0.10
2018-01-15T09:00:19.148Z,0.00
2018-01-15T09:02:45.465Z,0.00
2018-01-15T09:05:12.478Z,0.10
2018-01-15T09:07:38.772Z,0.00
2018-01-15T09:10:05.054Z,0.10
2018-01-15T09:12:31.331Z,0.30
2018-01-15T09:14:57.627Z,0.60
2018-01-15T09:17:24.659Z,0.60
2018-01-15T09:19:52.511Z,0.60
2018-01-15T09:22:18.800Z,0.50
2018-01-15T09:24:45.086Z,0.60
2018-01-15T09:27:11.372Z,0.60
2018-01-15T09:29:37.684Z,0.60
2018-01-15T09:32:03.984Z,0.70
2018-01-15T09:34:30.292Z,0.70
2018-01-15T09:36:56.641Z,0.70
2018-01-15T09:39:22.929Z,0.60
2018-01-15T09:41:49.295Z,0.70
2018-01-15T09:44:15.584Z,0.70
2018-01-15T09:46:41.859Z,0.70
2018-01-15T09:49:08.155Z,0.70
2018-01-15T09:51:34.441Z,0.70
2018-01-15T09:54:01.459Z,0.90
2018-01-15T09:56:29.209Z,0.80
2018-01-15T09:58:55.508Z,0.80
2018-01-15T10:01:21.772Z,1.00
2018-01-15T10:03:48.090Z,1.00
2018-01-15T10:06:14.388Z,0.90
2018-01-15T10:08:40.689Z,1.10
2018-01-15T10:11:07.728Z,1.10
2018-01-15T10:13:34.760Z,1.20
2018-01-15T10:16:01.041Z,1.10
2018-01-15T10:18:27.331Z,1.20
2018-01-15T10:20:53.645Z,1.30
2018-01-15T10:23:19.949Z,1.40
2018-01-15T10:25:46.230Z,1.20
2018-01-15T10:28:12.519Z,1.20
2018-01-15T10:30:38.819Z,1.20
2018-01-15T10:33:05.112Z,1.20
2018-01-15T10:35:32.152Z,1.40
2018-01-15T10:37:58.431Z,1.30
2018-01-15T10:40:24.749Z,1.40
2018-01-15T10:42:51.078Z,1.40
2018-01-15T10:45:17.389Z,1.30
2018-01-15T10:47:44.412Z,1.40
2018-01-15T10:50:10.988Z,1.30
2018-01-15T10:52:37.269Z,1.60
2018-01-15T10:55:03.577Z,1.60
2018-01-15T10:57:29.879Z,1.70
2018-01-15T10:59:56.225Z,1.60
2018-01-15T11:02:22.503Z,1.70
2018-01-15T11:04:49.554Z,1.70
2018-01-15T11:07:16.580Z,1.60
2018-01-15T11:09:42.904Z,1.60
2018-01-15T11:12:09.272Z,1.60
2018-01-15T11:14:35.553Z,1.60
2018-01-15T11:17:01.851Z,1.50
2018-01-15T11:19:28.153Z,1.50
2018-01-15T11:21:55.177Z,1.60
2018-01-15T11:24:21.476Z,1.50
2018-01-15T11:26:47.789Z,1.50
2018-01-15T11:29:14.093Z,1.50
2018-01-15T11:31:41.127Z,1.60
2018-01-15T11:34:07.400Z,1.50
2018-01-15T11:36:33.720Z,1.60
2018-01-15T11:39:00.037Z,1.60
2018-01-15T11:41:26.364Z,1.70
2018-01-15T11:43:53.385Z,1.80
2018-01-15T11:46:19.762Z,1.70
2018-01-15T11:48:46.068Z,1.80
2018-01-15T11:51:13.108Z,1.90
2018-01-15T11:53:40.178Z,1.90
2018-01-15T11:56:06.460Z,1.90
2018-01-15T11:58:32.784Z,1.90
2018-01-15T12:00:59.107Z,1.90
2018-01-15T12:03:25.408Z,2.00
2018-01-15T12:05:51.736Z,2.10
2018-01-15T12:08:18.018Z,2.00
2018-01-15T12:10:44.600Z,2.00
2018-01-15T12:13:10.920Z,2.10
2018-01-15T12:15:37.218Z,2.30
2018-01-15T12:18:03.539Z,2.30
2018-01-15T12:20:29.826Z,2.40
2018-01-15T12:22:56.131Z,2.40
2018-01-15T12:25:23.154Z,2.40
2018-01-15T12:27:50.192Z,2.40
2018-01-15T12:30:16.487Z,2.40
2018-01-15T12:32:42.785Z,2.50
2018-01-15T12:35:09.804Z,2.40
2018-01-15T12:37:36.142Z,2.30
2018-01-15T12:40:03.171Z,2.40
2018-01-15T12:42:29.469Z,2.40
2018-01-15T12:44:55.738Z,2.40
2018-01-15T12:47:22.039Z,2.50
2018-01-15T12:49:48.341Z,2.50
2018-01-15T12:52:14.634Z,2.50
2018-01-15T12:54:41.697Z,2.60
2018-01-15T12:57:08.728Z,2.60
2018-01-15T12:59:35.765Z,2.60
2018-01-15T13:02:02.052Z,2.50
2018-01-15T13:04:28.332Z,2.50
2018-01-15T13:06:55.612Z,2.50
2018-01-15T13:09:21.948Z,2.50
2018-01-15T13:11:48.227Z,2.50
2018-01-15T13:14:14.529Z,2.50
2018-01-15T13:16:40.799Z,2.60
2018-01-15T13:19:07.089Z,2.70
2018-01-15T13:21:33.381Z,2.70
2018-01-15T13:24:00.425Z,2.60
2018-01-15T13:26:27.489Z,2.60
2018-01-15T13:28:53.751Z,2.50
2018-01-15T13:31:20.041Z,2.60
2018-01-15T13:33:46.316Z,2.60
2018-01-15T13:36:12.612Z,2.60
2018-01-15T13:38:38.895Z,2.60
2018-01-15T13:41:05.208Z,2.60
2018-01-15T13:43:31.504Z,2.50
2018-01-15T13:45:57.811Z,2.60
2018-01-15T13:48:24.122Z,2.60
2018-01-15T13:50:50.409Z,2.60
2018-01-15T13:53:16.695Z,2.60
2018-01-15T13:55:43.718Z,2.80
2018-01-15T13:58:10.073Z,2.70
2018-01-15T14:00:36.357Z,2.60
2018-01-15T14:03:02.644Z,2.70
2018-01-15T14:05:29.664Z,2.70
2018-01-15T14:07:56.694Z,2.70
2018-01-15T14:10:22.996Z,2.60
2018-01-15T14:12:49.289Z,2.70
2018-01-15T14:15:15.584Z,2.70
2018-01-15T14:17:41.875Z,2.80
2018-01-15T14:20:08.183Z,2.70
2018-01-15T14:22:34.485Z,2.80
2018-01-15T14:25:01.533Z,2.80
2018-01-15T14:27:28.573Z,2.90
2018-01-15T14:29:54.850Z,2.80
2018-01-15T14:32:21.153Z,2.80
2018-01-15T14:34:48.177Z,2.70
2018-01-15T14:37:14.486Z,2.70
2018-01-15T14:39:40.763Z,2.80
2018-01-15T14:42:07.076Z,2.70
2018-01-15T14:44:33.359Z,2.80
2018-01-15T14:46:59.658Z,2.70
2018-01-15T14:49:26.712Z,2.60
2018-01-15T14:51:53.021Z,2.50
2018-01-15T14:54:20.064Z,2.60
2018-01-15T14:56:47.119Z,2.60
2018-01-15T14:59:14.149Z,2.60
2018-01-15T15:01:40.444Z,2.50
2018-01-15T15:04:06.719Z,2.60
2018-01-15T15:06:33.791Z,2.50
2018-01-15T15:09:00.086Z,2.50
2018-01-15T15:11:26.418Z,2.50
2018-01-15T15:13:52.725Z,2.60
2018-01-15T15:16:19.028Z,2.60
2018-01-15T15:18:45.361Z,2.50
2018-01-15T15:21:11.649Z,2.60
2018-01-15T15:23:38.681Z,2.60
2018-01-15T15:26:04.980Z,2.50
2018-01-15T15:28:31.267Z,2.50
2018-01-15T15:30:58.295Z,2.50
2018-01-15T15:33:25.328Z,2.50
2018-01-15T15:35:51.625Z,2.40
2018-01-15T15:38:18.655Z,2.60
2018-01-15T15:40:44.948Z,2.50
2018-01-15T15:43:11.993Z,2.60
2018-01-15T15:45:38.293Z,2.60
2018-01-15T15:48:04.588Z,2.60
2018-01-15T15:50:30.909Z,2.50
2018-01-15T15:52:57.194Z,2.50
2018-01-15T15:55:23.501Z,2.60
2018-01-15T15:57:49.767Z,2.60
2018-01-15T16:00:16.829Z,2.60
2018-01-15T16:02:43.865Z,2.70
2018-01-15T16:05:10.909Z,2.70
2018-01-15T16:07:37.208Z,2.70
2018-01-15T16:10:03.539Z,2.70
2018-01-15T16:12:29.855Z,2.70
2018-01-15T16:14:56.128Z,2.70
2018-01-15T16:17:23.165Z,2.70
2018-01-15T16:19:49.472Z,2.70
2018-01-15T16:22:28.187Z,2.80
2018-01-15T16:24:54.467Z,2.80
2018-01-15T16:27:21.512Z,2.70
2018-01-15T16:29:48.558Z,2.70
2018-01-15T16:32:15.603Z,2.70
2018-01-15T16:34:42.652Z,2.80
2018-01-15T16:37:08.989Z,2.80
2018-01-15T16:39:35.312Z,2.90
2018-01-15T16:42:02.380Z,2.90
2018-01-15T16:44:28.674Z,2.80
2018-01-15T16:46:56.432Z,2.90
2018-01-15T16:49:22.739Z,2.90
2018-01-15T16:51:49.058Z,3.00
2018-01-15T16:54:15.351Z,3.10
2018-01-15T16:56:42.408Z,3.00
2018-01-15T16:59:08.695Z,3.00
2018-01-15T17:01:35.014Z,3.00
2018-01-15T17:04:01.312Z,3.10
2018-01-15T17:06:27.619Z,3.10
2018-01-15T17:08:54.280Z,3.10
2018-01-15T17:11:20.582Z,3.10
2018-01-15T17:13:55.687Z,3.10
2018-01-15T17:16:21.965Z,3.10
2018-01-15T17:18:48.237Z,3.10
2018-01-15T17:21:14.549Z,3.10
2018-01-15T17:23:40.840Z,3.20
2018-01-15T17:26:07.883Z,3.20
2018-01-15T17:28:34.901Z,3.20
2018-01-15T17:31:01.211Z,3.10
2018-01-15T17:33:27.496Z,3.20
2018-01-15T17:35:54.547Z,3.10
2018-01-15T17:38:21.574Z,3.10
2018-01-15T17:40:48.601Z,3.10
2018-01-15T17:43:14.889Z,3.10
2018-01-15T17:45:41.520Z,3.20
2018-01-15T17:48:07.852Z,3.30
2018-01-15T17:50:34.131Z,3.20
2018-01-15T17:53:00.445Z,3.10
2018-01-15T17:55:26.766Z,3.10
2018-01-15T17:57:53.069Z,3.20
2018-01-15T18:00:19.365Z,3.30
2018-01-15T18:02:46.426Z,3.30
2018-01-15T18:05:12.729Z,3.30
2018-01-15T18:07:39.032Z,3.30
2018-01-15T18:10:05.305Z,3.30
2018-01-15T18:12:32.351Z,3.30
2018-01-15T18:14:58.657Z,3.20
2018-01-15T18:17:24.965Z,3.30
2018-01-15T18:19:51.253Z,3.40
2018-01-15T18:22:17.557Z,3.30
2018-01-15T18:24:43.829Z,3.40
2018-01-15T18:27:10.159Z,3.40
2018-01-15T18:29:36.445Z,3.40
2018-01-15T18:32:02.768Z,3.40
2018-01-15T18:34:29.047Z,3.40
2018-01-15T18:36:55.353Z,3.50
2018-01-15T18:39:22.400Z,3.40
2018-01-15T18:41:49.419Z,3.50
2018-01-15T18:44:15.692Z,3.40
2018-01-15T18:46:41.975Z,3.50
2018-01-15T18:49:08.302Z,3.40
2018-01-15T18:51:35.372Z,3.40
2018-01-15T18:54:02.425Z,3.50
2018-01-15T18:56:28.728Z,3.40
2018-01-15T18:58:55.058Z,3.50
2018-01-15T19:01:21.344Z,3.50
2018-01-15T19:03:47.668Z,3.50
2018-01-15T19:06:13.958Z,3.50
2018-01-15T19:08:41.071Z,3.60
2018-01-15T19:11:08.106Z,3.60
2018-01-15T19:13:34.382Z,3.50
2018-01-15T19:16:00.740Z,3.60
2018-01-15T19:18:27.124Z,3.60
2018-01-15T19:20:53.447Z,3.60
2018-01-15T19:23:19.732Z,3.60
2018-01-15T19:25:46.026Z,3.60
2018-01-15T19:28:12.324Z,3.50
2018-01-15T19:30:38.715Z,3.60
2018-01-15T19:33:05.766Z,3.60
2018-01-15T19:38:32.840Z,3.50
2018-01-15T19:40:59.192Z,3.50
2018-01-15T19:43:29.463Z,3.50
2018-01-15T19:46:01.786Z,3.60
2018-01-15T19:48:34.424Z,3.40
2018-01-15T19:51:07.609Z,3.20
2018-01-15T19:53:39.991Z,3.20
2018-01-15T19:56:13.383Z,3.20
2018-01-15T19:58:45.875Z,3.10
2018-01-15T20:01:18.429Z,3.10
2018-01-15T20:03:50.878Z,3.00
2018-01-15T20:06:23.319Z,3.00
2018-01-15T20:08:55.811Z,2.90
2018-01-15T20:11:22.224Z,2.90
2018-01-15T20:13:48.544Z,3.00
2018-01-15T20:16:15.211Z,2.90
2018-01-15T20:18:41.620Z,3.00
2018-01-15T20:21:08.012Z,3.00
2018-01-15T20:23:34.544Z,3.00
2018-01-15T20:26:00.915Z,3.00
2018-01-15T20:28:27.279Z,3.10
2018-01-15T20:30:53.651Z,3.10
2018-01-15T20:33:20.714Z,3.00
2018-01-15T20:35:47.798Z,3.10
2018-01-15T20:38:14.076Z,3.00
2018-01-15T20:40:40.634Z,3.00
2018-01-15T20:43:06.939Z,3.00
2018-01-15T20:45:34.675Z,3.00
2018-01-15T20:48:01.208Z,3.00
2018-01-15T20:50:28.041Z,3.10
2018-01-15T20:52:54.788Z,3.10
2018-01-15T20:55:21.161Z,3.20
2018-01-15T20:57:48.246Z,3.20
2018-01-15T21:00:14.673Z,3.10
2018-01-15T21:02:41.079Z,3.20
2018-01-15T21:05:07.404Z,3.10
2018-01-15T21:07:34.433Z,3.10
2018-01-15T21:10:00.893Z,3.00
2018-01-15T21:12:28.003Z,3.10
2018-01-15T21:14:54.366Z,3.10
2018-01-15T21:17:20.713Z,3.20
2018-01-15T21:19:47.043Z,3.20
2018-01-15T21:22:13.338Z,3.10
2018-01-15T21:24:39.737Z,3.20
2018-01-15T21:27:06.094Z,3.20
2018-01-15T21:29:33.234Z,3.30
2018-01-15T21:32:00.419Z,3.30
2018-01-15T21:34:27.482Z,3.30
2018-01-15T21:36:54.057Z,3.20
2018-01-15T21:39:20.419Z,3.20
2018-01-15T21:41:47.526Z,3.30
2018-01-15T21:44:13.887Z,3.30
2018-01-15T21:46:40.240Z,3.30
2018-01-15T21:49:06.640Z,3.30
2018-01-15T21:51:33.851Z,3.40
2018-01-15T21:54:00.161Z,3.30
2018-01-15T21:56:27.349Z,3.40
2018-01-15T21:58:53.646Z,3.30
2018-01-15T22:01:19.986Z,3.40
2018-01-15T22:03:46.333Z,3.40
2018-01-15T22:06:12.904Z,3.40
2018-01-15T22:08:40.753Z,3.40
2018-01-15T22:11:07.051Z,3.40
2018-01-15T22:13:33.354Z,3.30
2018-01-15T22:15:59.657Z,3.30
2018-01-15T22:18:26.071Z,3.30
2018-01-15T22:20:52.683Z,3.20
2018-01-15T22:23:18.980Z,3.30
2018-01-15T22:25:45.300Z,3.30
2018-01-15T22:28:11.671Z,3.30
2018-01-15T22:30:37.961Z,3.30
2018-01-15T22:33:04.286Z,3.20
2018-01-15T22:35:31.341Z,3.20
2018-01-15T22:37:58.444Z,3.10
2018-01-15T22:40:24.798Z,3.10
2018-01-15T22:42:51.093Z,3.10
2018-01-15T22:45:17.427Z,3.10
2018-01-15T22:47:43.779Z,3.10
2018-01-15T22:50:10.107Z,3.10
2018-01-15T22:52:36.385Z,3.00
2018-01-15T22:55:03.575Z,3.00
2018-01-15T22:57:30.617Z,2.90
2018-01-15T22:59:56.915Z,2.90
2018-01-15T23:02:23.270Z,2.90
2018-01-15T23:04:49.609Z,2.80
2018-01-15T23:07:15.923Z,2.90
2018-01-15T23:09:42.270Z,2.80
2018-01-15T23:12:08.560Z,2.90
2018-01-15T23:14:34.857Z,2.80
2018-01-15T23:17:01.170Z,2.90
2018-01-15T23:19:28.224Z,2.90
2018-01-15T23:21:54.558Z,2.90
2018-01-15T23:24:20.884Z,2.80
2018-01-15T23:26:47.303Z,2.80
2018-01-15T23:29:13.587Z,2.80
2018-01-15T23:31:40.660Z,2.70
2018-01-15T23:34:06.945Z,2.70
2018-01-15T23:36:33.237Z,2.70
2018-01-15T23:38:59.526Z,2.80
2018-01-15T23:41:26.527Z,2.80
2018-01-15T23:43:52.825Z,2.70
2018-01-15T23:46:19.126Z,2.70
2018-01-15T23:48:46.167Z,2.70
2018-01-15T23:51:12.439Z,2.70
2018-01-15T23:53:38.729Z,2.80
2018-01-15T23:56:05.744Z,2.70
2018-01-15T23:58:32.036Z,2.70
